Terminal Aerodrome Forecast
Issued by NWS

Home | Current Version | Previous Version | Text Only | Print | Product List | Glossary On
Versions: 1 2 3 4 5 6 7 8 9 10 11 12 13 14 15 16 17 18 19 20 21 22 23 24 25 26 27 28 29 30 31 32
000
FTUS41 KBOX 110522
TAFACK
TAF
KACK 110522Z 1106/1206 00000KT 1/2SM FG BKN002 OVC070
     FM111000 VRB04KT 4SM -SHRA OVC040
     FM111200 06007KT 1SM BR BKN080
     FM111400 06007KT P6SM BKN050
     FM112100 07006KT P6SM SCT250
     FM120000 05004KT 5SM BR SCT250=

USA.gov is the U.S. government's official web portal to all federal, state and local government web resources and services.